createdAt,value
2023-02-08T00:01:23.255Z,101908.97
2023-02-08T00:04:09.400Z,101917.63
2023-02-08T00:06:51.906Z,101904.63
2023-02-08T00:09:23.802Z,101928.16
2023-02-08T00:15:50.183Z,101943.78
2023-02-08T00:18:21.906Z,101928.22
2023-02-08T00:21:00.359Z,101933.38
2023-02-08T00:23:31.705Z,101924.75
2023-02-08T00:26:05.516Z,101924.59
2023-02-08T00:31:52.516Z,101942.97
2023-02-08T00:43:53.759Z,101928.22
2023-02-08T00:46:25.181Z,101916.09
2023-02-08T00:49:05.509Z,101935.28
2023-02-08T00:51:34.298Z,101921.34
2023-02-08T00:54:18.312Z,101929.97
2023-02-08T00:56:47.771Z,101910.81
2023-02-08T00:59:30.462Z,101923.97
2023-02-08T01:02:07.430Z,101921.31
2023-02-08T01:04:40.898Z,101931.78
2023-02-08T01:07:14.398Z,101933.56
2023-02-08T01:09:50.044Z,101942.22
2023-02-08T01:15:17.520Z,101944.81
2023-02-08T01:18:34.144Z,101950.09
2023-02-08T01:21:39.462Z,101947.31
2023-02-08T01:24:12.180Z,101940.44
2023-02-08T01:26:58.990Z,101946.63
2023-02-08T01:29:39.212Z,101943.13
2023-02-08T01:32:09.800Z,101951.88
2023-02-08T01:34:56.190Z,101957.94
2023-02-08T01:37:40.222Z,101950.09
2023-02-08T01:40:14.828Z,101939.66
2023-02-08T01:45:45.973Z,101949.25
2023-02-08T01:48:25.842Z,101941.41
2023-02-08T01:51:09.263Z,101946.63
2023-02-08T01:53:49.112Z,101948.41
2023-02-08T01:56:23.093Z,101947.50
2023-02-08T01:58:58.286Z,101951.88
2023-02-08T02:01:28.502Z,101942.28
2023-02-08T02:04:06.181Z,101957.13
2023-02-08T02:06:47.523Z,101947.47
2023-02-08T02:09:23.709Z,101939.75
2023-02-08T02:12:07.864Z,101936.19
2023-02-08T02:14:39.087Z,101940.53
2023-02-08T02:17:11.838Z,101961.44
2023-02-08T02:23:21.640Z,101943.19
2023-02-08T02:29:34.448Z,101947.56
2023-02-08T02:32:26.840Z,101950.19
2023-02-08T02:35:05.978Z,101959.78
2023-02-08T02:37:53.752Z,101951.94
2023-02-08T02:40:33.823Z,101963.19
2023-02-08T02:43:27.438Z,101948.38
2023-02-08T02:46:09.177Z,101956.25
2023-02-08T02:49:04.282Z,101953.66
2023-02-08T02:51:43.237Z,101961.53
2023-02-08T02:57:41.822Z,101947.59
2023-02-08T03:03:08.276Z,101957.13
2023-02-08T03:05:46.577Z,101957.13
2023-02-08T03:08:34.845Z,101951.91
2023-02-08T03:14:24.804Z,101966.75
2023-02-08T03:17:20.914Z,101960.66
2023-02-08T03:20:05.201Z,101971.94
2023-02-08T03:22:47.082Z,101965.00
2023-02-08T03:25:22.240Z,101958.06
2023-02-08T03:31:09.236Z,101958.94
2023-02-08T03:33:46.281Z,101969.41
2023-02-08T03:36:25.086Z,101967.66
2023-02-08T03:39:01.596Z,101958.97
2023-02-08T03:41:49.141Z,101972.00
2023-02-08T03:44:27.834Z,101949.38
2023-02-08T03:47:05.060Z,101963.28
2023-02-08T03:49:37.548Z,101966.78
2023-02-08T03:55:13.221Z,101950.25
2023-02-08T03:57:48.795Z,101957.22
2023-02-08T04:00:20.173Z,101959.81
2023-02-08T04:02:56.308Z,101969.41
2023-02-08T04:05:31.531Z,101978.09
2023-02-08T04:08:09.394Z,101975.47
2023-02-08T04:10:56.403Z,101972.88
2023-02-08T04:13:31.781Z,101972.00
2023-02-08T04:16:13.000Z,101980.69
2023-02-08T04:18:50.634Z,101970.25
2023-02-08T04:21:30.535Z,101978.09
2023-02-08T04:24:11.383Z,101983.31
2023-02-08T04:26:56.752Z,101958.09
2023-02-08T04:29:34.397Z,101971.13
2023-02-08T04:35:01.398Z,101979.84
2023-02-08T04:37:35.690Z,101978.97
2023-02-08T04:40:07.864Z,101972.00
2023-02-08T04:42:58.450Z,101964.16
2023-02-08T04:45:32.381Z,101968.53
2023-02-08T04:48:07.500Z,101961.56
2023-02-08T04:50:41.270Z,101972.00
2023-02-08T04:56:07.001Z,101960.66
2023-02-08T04:58:51.857Z,101961.56
2023-02-08T05:01:25.035Z,101966.78
2023-02-08T05:04:04.376Z,101965.06
2023-02-08T05:06:36.335Z,101967.66
2023-02-08T05:09:09.225Z,101969.38
2023-02-08T05:11:39.496Z,101965.03
2023-02-08T05:14:21.359Z,101985.06
2023-02-08T05:16:57.643Z,101972.88
2023-02-08T05:19:30.288Z,101970.25
2023-02-08T05:22:04.459Z,101983.34
2023-02-08T05:24:42.309Z,101999.00
2023-02-08T05:27:14.943Z,101977.22
2023-02-08T05:30:11.835Z,101975.50
2023-02-08T05:35:48.528Z,101997.25
2023-02-08T05:38:30.072Z,101999.88
2023-02-08T05:41:04.641Z,102006.81
2023-02-08T05:43:34.760Z,102009.44
2023-02-08T05:46:06.670Z,102012.03
2023-02-08T05:54:37.097Z,102025.09
2023-02-08T05:57:10.915Z,102009.44
2023-02-08T05:59:43.263Z,102012.03
2023-02-08T06:02:25.921Z,102011.16
2023-02-08T06:04:56.372Z,102015.50
2023-02-08T06:07:33.793Z,102007.66
2023-02-08T06:10:12.704Z,102021.59
2023-02-08T06:16:39.564Z,102037.28
2023-02-08T06:19:25.830Z,102027.69
2023-02-08T06:22:05.818Z,102039.03
2023-02-08T06:24:44.786Z,102039.06
2023-02-08T06:27:28.760Z,102060.81
2023-02-08T06:30:07.326Z,102055.56
2023-02-08T06:32:37.305Z,102056.44
2023-02-08T06:35:18.493Z,102052.94
2023-02-08T06:37:52.155Z,102059.03
2023-02-08T06:40:25.674Z,102055.56
2023-02-08T06:43:02.654Z,102065.16
2023-02-08T06:45:32.530Z,102059.94
2023-02-08T06:48:12.083Z,102070.38
2023-02-08T06:50:50.690Z,102045.13
2023-02-08T06:53:24.180Z,102039.03
2023-02-08T06:56:03.316Z,102039.91
2023-02-08T06:58:41.200Z,102040.81
2023-02-08T07:01:14.272Z,102023.38
2023-02-08T07:03:54.064Z,102016.41
2023-02-08T07:06:31.876Z,102020.75
2023-02-08T07:09:00.528Z,102033.81
2023-02-08T07:11:41.519Z,102030.31
2023-02-08T07:14:18.844Z,102028.59
2023-02-08T07:16:51.838Z,102024.25
2023-02-08T07:19:23.076Z,102031.22
2023-02-08T07:22:08.484Z,102044.28
2023-02-08T07:24:40.797Z,102044.25
2023-02-08T07:27:17.299Z,102050.34
2023-02-08T07:29:53.518Z,102066.03
2023-02-08T07:32:28.820Z,102065.19
2023-02-08T07:35:05.355Z,102060.84
2023-02-08T07:43:37.690Z,102044.25
2023-02-08T07:52:49.875Z,102064.28
2023-02-08T08:07:54.005Z,102091.28
2023-02-08T08:10:32.418Z,102080.81
2023-02-08T08:19:48.560Z,102076.47
2023-02-08T08:22:18.756Z,102070.34
2023-02-08T08:25:00.651Z,102080.78
2023-02-08T09:07:30.173Z,102089.31
2023-02-08T09:32:12.507Z,102127.44
2023-02-08T09:34:46.803Z,102130.06
2023-02-08T09:37:21.416Z,102118.69
2023-02-08T09:40:06.213Z,102123.09
2023-02-08T09:42:58.269Z,102115.31
2023-02-08T09:45:57.868Z,102111.06
2023-02-08T09:48:50.232Z,102138.03
2023-02-08T09:54:28.029Z,102141.28
2023-02-08T09:57:07.446Z,102139.50
2023-02-08T09:59:37.631Z,102139.53
2023-02-08T10:02:25.494Z,102153.41
2023-02-08T10:05:21.290Z,102126.41
2023-02-08T10:07:50.082Z,102135.03
2023-02-08T10:10:26.039Z,102144.75
2023-02-08T10:13:01.412Z,102130.81
2023-02-08T10:15:35.285Z,102138.69
2023-02-08T10:18:29.680Z,102136.91
2023-02-08T10:21:21.034Z,102149.97
2023-02-08T10:24:07.860Z,102141.25
2023-02-08T10:26:41.877Z,102149.06
2023-02-08T10:36:18.760Z,102127.91
2023-02-08T10:38:53.706Z,102130.56
2023-02-08T10:41:29.043Z,102118.38
2023-02-08T10:44:10.039Z,102123.50
2023-02-08T10:46:47.469Z,102132.16
2023-02-08T10:49:21.106Z,102137.28
2023-02-08T10:51:54.322Z,102136.44
2023-02-08T10:54:30.553Z,102139.81
2023-02-08T10:57:03.884Z,102130.88
2023-02-08T10:59:46.706Z,102116.31
2023-02-08T11:02:23.479Z,102123.06
2023-02-08T11:05:05.576Z,102127.53
2023-02-08T11:07:44.696Z,102121.91
2023-02-08T11:10:16.964Z,102129.88
2023-02-08T11:13:20.510Z,102114.31
2023-02-08T11:16:16.635Z,102120.31
2023-02-08T11:18:51.830Z,102113.16
2023-02-08T11:21:34.505Z,102115.13
2023-02-08T11:24:40.756Z,102113.41
2023-02-08T11:27:19.861Z,102115.84
2023-02-08T11:29:51.011Z,102113.09
2023-02-08T11:32:21.104Z,102101.03
2023-02-08T11:34:51.758Z,102094.13
2023-02-08T11:37:28.973Z,102116.00
2023-02-08T11:40:04.541Z,102106.09
2023-02-08T11:42:37.182Z,102102.53
2023-02-08T11:45:11.649Z,102103.47
2023-02-08T11:47:42.179Z,102112.22
2023-02-08T11:50:27.813Z,102083.91
2023-02-08T11:53:02.270Z,102096.31
2023-02-08T11:55:48.562Z,102088.22
2023-02-08T11:58:25.257Z,102081.31
2023-02-08T12:01:12.189Z,102086.34
2023-02-08T12:03:48.355Z,102079.22
2023-02-08T12:06:47.453Z,102073.94
2023-02-08T12:09:31.480Z,102075.63
2023-02-08T12:12:15.939Z,102060.50
2023-02-08T12:15:24.469Z,102067.84
2023-02-08T12:18:20.003Z,102074.06
2023-02-08T12:20:49.935Z,102073.13
2023-02-08T12:23:51.916Z,102066.88
2023-02-08T12:26:43.493Z,102066.75
2023-02-08T12:29:47.351Z,102057.81
2023-02-08T12:32:43.353Z,102050.84
2023-02-08T12:36:04.549Z,102049.16
2023-02-08T12:39:17.891Z,102038.63
2023-02-08T12:42:00.185Z,102042.28
2023-02-08T12:44:35.748Z,102040.28
2023-02-08T12:47:32.290Z,102039.41
2023-02-08T12:50:13.721Z,102041.72
2023-02-08T12:52:48.410Z,102026.94
2023-02-08T12:55:20.332Z,102033.00
2023-02-08T12:57:53.293Z,102032.34
2023-02-08T13:00:25.660Z,102041.34
2023-02-08T13:03:08.812Z,102030.59
2023-02-08T13:05:46.210Z,102028.69
2023-02-08T13:08:31.652Z,102021.63
2023-02-08T13:11:19.207Z,102016.19
2023-02-08T13:13:57.456Z,102010.28
2023-02-08T13:16:30.828Z,102024.41
2023-02-08T13:19:23.427Z,102026.66
2023-02-08T13:21:59.561Z,102010.94
2023-02-08T13:24:40.729Z,102006.66
2023-02-08T13:27:12.650Z,102015.75
2023-02-08T13:29:44.166Z,102016.81
2023-02-08T13:32:26.233Z,102003.91
2023-02-08T13:35:04.223Z,102001.34
2023-02-08T13:37:44.126Z,101999.56
2023-02-08T13:40:28.426Z,101996.09
2023-02-08T13:43:04.020Z,102004.94
2023-02-08T13:45:39.388Z,102009.88
2023-02-08T13:48:11.842Z,102001.31
2023-02-08T13:50:57.368Z,101991.50
2023-02-08T13:54:09.017Z,101998.66
2023-02-08T13:56:43.774Z,101988.94
2023-02-08T14:00:06.877Z,101999.47
2023-02-08T14:03:02.136Z,102002.50
2023-02-08T14:05:53.365Z,101995.66
2023-02-08T14:08:30.069Z,101997.44
2023-02-08T14:11:15.512Z,101994.09
2023-02-08T14:13:53.688Z,101988.63
2023-02-08T14:16:35.457Z,101985.16
2023-02-08T14:19:06.403Z,101983.25
2023-02-08T14:21:45.184Z,101986.94
2023-02-08T14:24:28.607Z,101973.84
2023-02-08T14:27:09.620Z,101982.16
2023-02-08T14:29:39.564Z,101982.28
2023-02-08T14:32:07.936Z,101983.16
2023-02-08T14:34:40.419Z,101983.91
2023-02-08T14:37:33.057Z,101977.97
2023-02-08T14:40:43.388Z,101988.59
2023-02-08T14:43:35.784Z,101990.00
2023-02-08T14:46:43.534Z,101986.50
2023-02-08T14:49:23.357Z,101991.84
2023-02-08T14:51:56.565Z,101991.13
2023-02-08T14:54:33.544Z,101997.41
2023-02-08T14:57:09.152Z,101984.03
2023-02-08T14:59:38.794Z,101991.09
2023-02-08T15:02:18.957Z,101986.94
2023-02-08T15:04:56.509Z,101987.13
2023-02-08T15:07:34.368Z,101989.63
2023-02-08T15:10:19.274Z,101996.53
2023-02-08T15:13:00.230Z,101993.97
2023-02-08T15:15:36.951Z,102009.81
2023-02-08T15:18:08.476Z,102004.75
2023-02-08T15:20:40.391Z,101997.91
2023-02-08T15:23:22.892Z,101998.59
2023-02-08T15:26:04.300Z,101991.91
2023-02-08T15:28:39.496Z,101991.84
2023-02-08T15:31:11.291Z,101992.06
2023-02-08T15:33:40.550Z,101994.84
2023-02-08T15:36:17.160Z,101993.19
2023-02-08T15:38:53.466Z,101994.09
2023-02-08T15:41:28.973Z,101995.75
2023-02-08T15:44:18.284Z,101992.31
2023-02-08T15:46:49.236Z,101995.09
2023-02-08T15:49:20.234Z,101990.59
2023-02-08T15:51:54.078Z,102001.16
2023-02-08T15:54:23.069Z,101989.06
2023-02-08T15:57:00.582Z,102003.22
2023-02-08T15:59:32.889Z,101992.56
2023-02-08T16:02:10.419Z,101993.19
2023-02-08T16:04:47.007Z,101997.84
2023-02-08T16:07:32.547Z,102001.44
2023-02-08T16:10:01.145Z,102005.91
2023-02-08T16:12:36.355Z,101998.84
2023-02-08T16:15:08.646Z,102007.75
2023-02-08T16:17:52.719Z,102009.59
2023-02-08T16:20:31.341Z,102004.31
2023-02-08T16:23:06.249Z,102008.56
2023-02-08T16:25:45.620Z,102000.91
2023-02-08T16:28:35.568Z,102014.84
2023-02-08T16:31:11.762Z,102009.63
2023-02-08T16:33:41.962Z,102004.53
2023-02-08T16:36:27.897Z,102001.03
2023-02-08T16:39:41.555Z,102002.84
2023-02-08T16:42:29.749Z,102003.75
2023-02-08T16:45:24.976Z,102003.88
2023-02-08T16:48:04.265Z,102006.59
2023-02-08T16:50:45.980Z,101993.50
2023-02-08T16:53:41.894Z,102008.31
2023-02-08T16:56:13.625Z,102006.59
2023-02-08T16:58:46.378Z,102013.75
2023-02-08T17:01:26.413Z,102004.00
2023-02-08T17:03:56.070Z,102002.16
2023-02-08T17:06:31.999Z,102014.56
2023-02-08T17:09:18.241Z,102002.41
2023-02-08T17:11:56.691Z,101998.00
2023-02-08T17:14:29.740Z,102011.16
2023-02-08T17:17:10.054Z,102005.94
2023-02-08T17:19:43.544Z,102003.34
2023-02-08T17:22:23.175Z,102016.38
2023-02-08T17:24:52.964Z,102006.91
2023-02-08T17:27:30.954Z,102004.34
2023-02-08T17:30:05.163Z,101998.28
2023-02-08T17:32:55.666Z,102000.97
2023-02-08T17:35:44.038Z,102012.28
2023-02-08T17:38:17.529Z,102019.25
2023-02-08T17:40:55.458Z,102012.06
2023-02-08T17:43:28.105Z,102016.53
2023-02-08T17:45:59.132Z,102026.88
2023-02-08T17:48:54.605Z,102014.03
2023-02-08T17:51:35.761Z,102018.50
2023-02-08T17:54:17.156Z,102019.28
2023-02-08T17:56:54.087Z,102021.91
2023-02-08T17:59:49.391Z,102020.19
2023-02-08T18:02:30.645Z,102028.13
2023-02-08T18:05:21.045Z,102019.38
2023-02-08T18:07:54.719Z,102015.06
2023-02-08T18:10:39.987Z,102015.94
2023-02-08T18:13:11.767Z,102021.13
2023-02-08T18:15:53.198Z,102020.19
2023-02-08T18:18:33.096Z,102022.97
2023-02-08T18:24:09.282Z,102014.09
2023-02-08T18:26:50.501Z,102014.91
2023-02-08T18:29:26.963Z,102015.09
2023-02-08T18:32:00.380Z,102007.34
2023-02-08T18:34:40.724Z,102006.47
2023-02-08T18:37:21.426Z,102003.91
2023-02-08T18:40:04.358Z,102007.41
2023-02-08T18:42:45.114Z,102004.66
2023-02-08T18:45:27.232Z,102015.22
2023-02-08T18:48:09.826Z,101996.09
2023-02-08T18:50:46.896Z,101997.03
2023-02-08T18:53:30.589Z,101999.66
2023-02-08T18:56:08.282Z,101997.94
2023-02-08T18:58:52.806Z,102004.88
2023-02-08T19:01:55.346Z,102003.91
2023-02-08T19:04:37.782Z,101990.78
2023-02-08T19:07:21.049Z,101986.44
2023-02-08T19:10:00.778Z,101990.00
2023-02-08T19:12:40.488Z,101986.50
2023-02-08T19:15:22.435Z,101986.53
2023-02-08T19:17:59.071Z,101975.03
2023-02-08T19:20:45.328Z,101992.47
2023-02-08T19:23:27.097Z,101991.72
2023-02-08T19:26:28.367Z,101987.41
2023-02-08T19:29:09.850Z,101973.53
2023-02-08T19:31:43.280Z,101981.31
2023-02-08T19:34:23.574Z,101978.78
2023-02-08T19:37:02.369Z,101987.53
2023-02-08T19:39:33.399Z,101984.00
2023-02-08T19:42:22.870Z,101989.28
2023-02-08T19:45:07.603Z,101992.78
2023-02-08T19:47:51.813Z,101987.53
2023-02-08T19:50:26.615Z,101992.78
2023-02-08T19:53:10.416Z,101993.56
2023-02-08T19:55:55.224Z,101990.97
2023-02-08T19:58:39.018Z,101997.06
2023-02-08T20:01:27.566Z,101991.00
2023-02-08T20:04:18.138Z,101992.69
2023-02-08T20:06:54.416Z,101977.88
2023-02-08T20:09:45.999Z,101981.25
2023-02-08T20:12:25.148Z,101989.22
2023-02-08T20:15:10.359Z,101976.13
2023-02-08T20:17:56.414Z,101984.06
2023-02-08T20:20:36.282Z,101982.41
2023-02-08T20:23:22.706Z,101976.31
2023-02-08T20:26:11.101Z,101978.91
2023-02-08T20:29:01.553Z,101975.50
2023-02-08T20:32:05.268Z,101991.13
2023-02-08T20:34:59.012Z,101991.06
2023-02-08T20:37:38.694Z,101979.84
2023-02-08T20:40:33.557Z,101981.56
2023-02-08T20:43:03.345Z,101976.28
2023-02-08T20:45:33.445Z,101982.34
2023-02-08T20:48:26.047Z,101977.09
2023-02-08T20:51:18.442Z,101983.16
2023-02-08T20:53:59.434Z,101985.81
2023-02-08T20:56:45.397Z,101991.88
2023-02-08T20:59:25.848Z,101986.63
2023-02-08T21:02:03.426Z,101997.91
2023-02-08T21:04:49.554Z,101991.81
2023-02-08T21:07:21.338Z,101981.34
2023-02-08T21:10:07.540Z,101998.88
2023-02-08T21:12:46.019Z,101982.25
2023-02-08T21:15:27.905Z,101985.00
2023-02-08T21:18:06.093Z,101981.53
2023-02-08T21:20:47.860Z,101981.56
2023-02-08T21:23:19.153Z,101991.13
2023-02-08T21:26:12.734Z,101980.66
2023-02-08T21:28:43.711Z,101979.81
2023-02-08T21:31:22.573Z,101978.97
2023-02-08T21:33:54.516Z,101967.59
2023-02-08T21:36:37.780Z,101976.25
2023-02-08T21:39:11.908Z,101982.38
2023-02-08T21:41:44.143Z,101966.72
2023-02-08T21:44:18.597Z,101970.28
2023-02-08T21:47:04.009Z,101964.16
2023-02-08T21:49:51.954Z,101966.72
2023-02-08T21:52:46.175Z,101964.31
2023-02-08T21:55:25.184Z,101971.94
2023-02-08T21:58:04.573Z,101969.34
2023-02-08T22:00:38.888Z,101964.13
2023-02-08T22:03:09.605Z,101957.16
2023-02-08T22:05:40.288Z,101966.75
2023-02-08T22:08:12.145Z,101957.22
2023-02-08T22:10:50.211Z,101960.81
2023-02-08T22:13:34.965Z,101961.69
2023-02-08T22:16:17.364Z,101953.81
2023-02-08T22:18:49.415Z,101963.47
2023-02-08T22:21:37.149Z,101946.84
2023-02-08T22:24:15.328Z,101955.56
2023-02-08T22:26:49.705Z,101961.75
2023-02-08T22:29:20.105Z,101944.38
2023-02-08T22:31:48.828Z,101943.50
2023-02-08T22:34:21.134Z,101937.38
2023-02-08T22:36:56.934Z,101936.63
2023-02-08T22:39:38.963Z,101940.94
2023-02-08T22:42:19.365Z,101948.59
2023-02-08T22:44:52.340Z,101946.09
2023-02-08T22:47:35.389Z,101945.94
2023-02-08T22:50:13.115Z,101940.81
2023-02-08T22:52:51.207Z,101938.25
2023-02-08T22:55:27.196Z,101927.00
2023-02-08T22:57:58.902Z,101931.34
2023-02-08T23:00:37.871Z,101931.31
2023-02-08T23:03:08.845Z,101927.03
2023-02-08T23:05:49.665Z,101918.38
2023-02-08T23:08:26.083Z,101910.53
2023-02-08T23:11:10.876Z,101915.59
2023-02-08T23:13:41.701Z,101916.59
2023-02-08T23:16:22.735Z,101913.97
2023-02-08T23:22:13.528Z,101900.91
2023-02-08T23:24:47.449Z,101909.75
2023-02-08T23:27:25.405Z,101923.59
2023-02-08T23:30:05.564Z,101911.44
2023-02-08T23:32:47.572Z,101902.75
2023-02-08T23:35:21.388Z,101912.28
2023-02-08T23:37:53.460Z,101901.03
2023-02-08T23:40:34.108Z,101914.03
2023-02-08T23:43:14.093Z,101910.53
2023-02-08T23:45:46.074Z,101921.88
2023-02-08T23:48:18.361Z,101907.09
2023-02-08T23:50:58.442Z,101914.13
2023-02-08T23:53:30.417Z,101905.31
2023-02-08T23:56:23.823Z,101902.72
2023-02-08T23:59:06.023Z,101897.50
